Pikwitonei, Canada
Current Conditions -  °F | °C
As of 9:00 AM on Wednesday 22 Oct 2014 (Local Time) from CYTH Reporting Station
Broken Clouds Broken Clouds  
Wind Chill: 34°   Ceiling: 25000
Heat Index: 34°   Visibility: 15mi
Dew Point: 34°   Wind: 2mph
Humidity: 100%   Direction: 100°E
Pressure: 29.63"   Gusts: NA
Location:  55.58°N, 97.15°W
Report Text: CYTH 221400Z 10002KT 15SM FEW130 BKN250 01/01 A2963 RMK AC2CI2SLP045
Loading
Personal Weather Stations






























Interactive Weather Map
Tropical Storm Tracking
New forecast layout! Learn more

10-Day Weather Forecast

Advertisements
Track Severe Weather on mobile